Terminal Aerodrome Forecast
Issued by NWS

Home | Current Version | Previous Version | Text Only | Print | Product List | Glossary On
Versions: 1 2 3 4 5 6 7 8 9 10 11 12
000
FTUS44 KOUN 292346
TAFPNC
TAF
KPNC 292346Z 3000/3024 01013KT 6SM BR OVC005
      TEMPO 3001/3005 1SM -DZ BR
     FM300800 VRB06KT 5SM BR OVC005
     FM301200 24010KT P6SM OVC006
     FM301800 27016G24KT P6SM OVC010=

USA.gov is the U.S. government's official web portal to all federal, state and local government web resources and services.